Portada
METAR-TAF:

METAR-TAF

Aeroports :

Sukhothai, Tailàndia

latitud: 17-14-16N, longitud: 099-49-05E, altitud: 55 m

Observació

L'informe es va fer fa 18 minuts, a les 04:00 UTC
Vent 1 kt amb direcció variable
Temperatura 33°C
Humitat 46%
Pressió 1011 hPa
Visibilitat: 3000 m
calitja

METAR: VTPO 230400Z VRB01KT 3000 HZ NSC 33/20 Q1011 NOSIG

Hora: 11:18 (04:18 UTC)

Pronòstic

L'informe es va fer fa 5 hores i 18 minuts, a les 23:00 UTC
Pronòstic vàlid del 23 a les 00 UTC al 23 a les 24 UTC
Vent 5 kt del Est/Sud-Est
Visibilitat: 2000 m
Escasses núvols a una alçada de 3000 ft
boirina
Evolucionant progressivament
l' 23 a les 01 UTC al 23 a les 03 UTC
Visibilitat: 8000 m

TAF: VTPO 222300Z 2300/2324 12005KT 2000 BR FEW030 BECMG 2301/2303 8000 NSW

Observacions i pronòstics meteorològics de més de 4000 aeroports (METAR i TAF).

Les estacions disponibles són els punts grocs i vermells al mapa.

Posi el ratolí al punt desitjat per veure el nom de l'estació.

Feu clic per veure les observacions i els pronòstics meteorològics.

Per canviar el mapa: feu clic els botons verds amb una creu de color negre per apropar; al botó verd amb un guió per allunyar la imatge; o en les fletxes verdes per a mapes adjacents.


METAR-TAF: